Warman, Minnesota
Current Conditions -  °F | °C
As of 3:46 PM on Saturday 22 Nov 2014 (Local Time) from K04W Reporting Station
Haze Haze  
Wind Chill: 28°   Ceiling: 800
Heat Index: 34°   Visibility: 4mi
Dew Point: 32°   Wind: 7mph
Humidity: 93%   Direction: 180°S
Pressure: 29.66"   Gusts: 10mph
Location:  45.9652°N, 93.2874°W
Report Text: K04W 222146Z AUTO 18006G09KT 4SM BR OVC008 01/00 A2966 RMK AO2
Loading
Personal Weather Stations






























Interactive Weather Map New forecast layout! Learn more

10-Day Weather Forecast

Advertisements
Track Severe Weather on mobile